Time;durP1;ratioP1;P1;durP2;ratioP2;P2;SDS_P1;SDS_P2;PMS_P1;PMS_P2;Temp;Humidity;BMP_temperature;BMP_pressure;BME280_temperature;BME280_humidity;BME280_pressure;Samples;Min_cycle;Max_cycle;Signal;HPM_P1;HPM_P2
2021/09/21 00:00:34;;;;;;;11.15;7.93;;;11.50;96.40;;;;;;5066819;28;20535;-65
2021/09/21 00:03:00;;;;;;;14.70;8.38;;;11.40;96.50;;;;;;5066590;28;20158;-65
2021/09/21 00:05:26;;;;;;;10.70;7.78;;;11.40;96.60;;;;;;5067274;28;20031;-65
2021/09/21 00:07:51;;;;;;;10.07;7.50;;;11.40;96.50;;;;;;5069423;28;20043;-65
2021/09/21 00:10:18;;;;;;;13.20;8.43;;;11.40;96.60;;;;;;5070253;28;20020;-66
2021/09/21 00:12:44;;;;;;;12.95;7.72;;;11.40;96.70;;;;;;5070878;28;20539;-65
2021/09/21 00:15:15;;;;;;;12.05;7.57;;;11.40;96.60;;;;;;5070320;28;20043;-65
2021/09/21 00:17:41;;;;;;;13.43;8.13;;;11.40;96.60;;;;;;5069040;28;20389;-65
2021/09/21 00:20:08;;;;;;;12.43;8.43;;;11.30;96.60;;;;;;5069123;28;20099;-66
2021/09/21 00:22:34;;;;;;;11.82;7.90;;;11.30;96.70;;;;;;5068424;28;20039;-65
2021/09/21 00:25:00;;;;;;;11.68;7.95;;;11.30;96.80;;;;;;5070790;28;20024;-65
2021/09/21 00:27:25;;;;;;;12.63;8.27;;;11.20;96.80;;;;;;5069905;28;20059;-65
2021/09/21 00:29:51;;;;;;;10.25;7.50;;;11.20;96.80;;;;;;5069986;28;20503;-66
2021/09/21 00:32:24;;;;;;;11.02;8.15;;;11.20;96.90;;;;;;5071440;28;20395;-65
2021/09/21 00:34:50;;;;;;;12.38;8.13;;;11.20;96.90;;;;;;5068357;28;20025;-67
2021/09/21 00:37:16;;;;;;;11.30;7.88;;;11.20;97.20;;;;;;5068575;28;20060;-65
2021/09/21 00:39:43;;;;;;;11.90;7.70;;;11.20;97.00;;;;;;5070969;28;20059;-65
2021/09/21 00:42:11;;;;;;;10.38;7.35;;;11.20;97.00;;;;;;5068287;28;20035;-66
2021/09/21 00:44:38;;;;;;;12.98;7.72;;;11.10;96.90;;;;;;5068210;28;20020;-65
2021/09/21 00:47:05;;;;;;;11.40;7.97;;;11.20;97.20;;;;;;5069410;28;20112;-65
2021/09/21 00:49:33;;;;;;;11.90;8.32;;;11.10;97.20;;;;;;5069200;28;20098;-65
2021/09/21 00:51:59;;;;;;;10.77;8.02;;;11.10;97.30;;;;;;5068097;28;20032;-65
2021/09/21 00:54:25;;;;;;;10.73;7.78;;;11.20;97.20;;;;;;5069620;28;20059;-66
2021/09/21 00:56:53;;;;;;;11.90;8.55;;;11.10;97.40;;;;;;5069415;28;20483;-65
2021/09/21 00:59:19;;;;;;;12.98;8.00;;;11.20;97.30;;;;;;5069049;28;20032;-65
2021/09/21 01:01:44;;;;;;;10.95;8.10;;;11.30;97.20;;;;;;5069451;28;20036;-65
2021/09/21 01:04:10;;;;;;;10.57;7.40;;;11.30;97.20;;;;;;5070008;28;20056;-65
2021/09/21 01:06:36;;;;;;;11.43;7.30;;;11.30;97.20;;;;;;5069155;28;20078;-65
2021/09/21 01:09:03;;;;;;;12.57;7.63;;;11.30;97.10;;;;;;5067351;28;20425;-66
2021/09/21 01:11:29;;;;;;;10.90;7.47;;;11.30;97.10;;;;;;5068482;28;20017;-66
2021/09/21 01:13:54;;;;;;;11.20;7.22;;;11.40;97.10;;;;;;5067383;28;20071;-66
2021/09/21 01:16:21;;;;;;;11.95;7.72;;;11.40;96.90;;;;;;5068442;28;20494;-65
2021/09/21 01:18:48;;;;;;;10.63;7.05;;;11.40;96.90;;;;;;5068388;28;20075;-66
2021/09/21 01:21:14;;;;;;;12.02;7.13;;;11.40;96.70;;;;;;5069670;28;20035;-65
2021/09/21 01:23:52;;;;;;;11.55;8.00;;;11.50;97.00;;;;;;5068961;28;20402;-66
2021/09/21 01:26:19;;;;;;;10.30;7.28;;;11.50;96.70;;;;;;5069308;28;20028;-66
2021/09/21 01:28:45;;;;;;;11.80;7.00;;;11.50;96.70;;;;;;5069287;28;20032;-66
2021/09/21 01:31:11;;;;;;;12.45;8.43;;;11.40;96.70;;;;;;5066814;28;20363;-66
2021/09/21 01:33:36;;;;;;;11.93;7.72;;;11.40;96.70;;;;;;5068435;28;20027;-66
2021/09/21 01:36:03;;;;;;;12.15;7.18;;;11.40;96.80;;;;;;5069088;28;20025;-66
2021/09/21 01:38:29;;;;;;;12.07;7.95;;;11.50;96.80;;;;;;5068561;28;20037;-66
2021/09/21 01:40:54;;;;;;;10.90;7.57;;;11.40;96.80;;;;;;5069265;28;20040;-66
2021/09/21 01:43:20;;;;;;;10.90;7.60;;;11.40;96.80;;;;;;5068805;28;20036;-66
2021/09/21 01:45:46;;;;;;;13.07;7.45;;;11.50;96.70;;;;;;5068609;28;20020;-67
2021/09/21 01:48:11;;;;;;;14.13;8.18;;;11.40;96.90;;;;;;5067143;28;20020;-66
2021/09/21 02:00:57;;;;;;;11.60;6.95;;;11.60;96.50;;;;;;5068062;28;19920;-65
2021/09/21 02:03:23;;;;;;;10.70;6.93;;;11.50;96.50;;;;;;5069177;28;20047;-66
2021/09/21 02:05:49;;;;;;;11.80;6.60;;;11.60;96.60;;;;;;5068489;28;20063;-66
2021/09/21 02:08:15;;;;;;;8.80;6.43;;;11.50;96.60;;;;;;5067701;28;20036;-66
2021/09/21 02:10:40;;;;;;;10.80;7.55;;;11.60;96.70;;;;;;5067037;28;20031;-67
2021/09/21 02:13:06;;;;;;;9.23;6.28;;;11.60;96.70;;;;;;5067184;28;20037;-66
2021/09/21 02:15:32;;;;;;;13.38;7.45;;;11.60;96.70;;;;;;5067331;28;20116;-66
2021/09/21 02:17:59;;;;;;;10.02;6.80;;;11.60;96.60;;;;;;5067375;28;20060;-66
2021/09/21 02:20:26;;;;;;;11.02;7.18;;;11.60;96.60;;;;;;5069301;28;20107;-65
2021/09/21 02:22:52;;;;;;;11.68;7.32;;;11.60;96.50;;;;;;5067494;28;20527;-66
2021/09/21 02:25:17;;;;;;;10.32;6.70;;;11.60;96.50;;;;;;5067735;28;20024;-65
2021/09/21 02:27:43;;;;;;;10.00;7.20;;;11.60;96.40;;;;;;5068661;28;20530;-65
2021/09/21 02:30:10;;;;;;;9.65;7.20;;;11.60;96.40;;;;;;5066863;28;20631;-66
2021/09/21 02:32:36;;;;;;;9.82;6.95;;;11.70;96.40;;;;;;5066280;28;20033;-66
2021/09/21 02:35:02;;;;;;;10.35;7.45;;;11.60;96.40;;;;;;5066218;28;20444;-65
2021/09/21 02:37:28;;;;;;;11.18;7.30;;;11.60;96.30;;;;;;5066675;28;20044;-68
2021/09/21 02:39:53;;;;;;;9.55;7.03;;;11.60;96.30;;;;;;5065630;28;20583;-65
2021/09/21 02:42:19;;;;;;;11.00;7.38;;;11.70;96.40;;;;;;5067205;28;20044;-65
2021/09/21 02:44:45;;;;;;;10.60;6.63;;;11.60;96.40;;;;;;5067142;28;20471;-66
2021/09/21 02:47:11;;;;;;;10.48;6.32;;;11.60;96.40;;;;;;5068407;28;20063;-66
2021/09/21 02:49:37;;;;;;;10.50;6.50;;;11.70;96.60;;;;;;5066468;28;20028;-66
2021/09/21 02:52:03;;;;;;;10.40;6.72;;;11.70;96.50;;;;;;5065673;28;20033;-66
2021/09/21 02:54:29;;;;;;;10.10;6.80;;;11.70;96.50;;;;;;5066345;28;20027;-66
2021/09/21 02:56:55;;;;;;;12.13;7.82;;;11.70;96.50;;;;;;5067790;28;20025;-66
2021/09/21 02:59:21;;;;;;;10.50;6.43;;;11.80;96.50;;;;;;5066415;28;20486;-66
2021/09/21 03:01:47;;;;;;;9.80;6.88;;;11.70;96.50;;;;;;5066760;28;20494;-66
2021/09/21 03:04:26;;;;;;;12.30;7.22;;;11.70;96.60;;;;;;5066082;28;20028;-66
2021/09/21 03:06:59;;;;;;;9.65;6.18;;;11.70;96.80;;;;;;5066777;28;20024;-66
2021/09/21 03:12:17;;;;;;;11.35;6.95;;;11.60;96.90;;;;;;5067108;28;20016;-66
2021/09/21 03:17:26;;;;;;;10.52;6.45;;;11.60;96.90;;;;;;5067159;28;20025;-65
2021/09/21 03:19:58;;;;;;;11.90;6.70;;;11.70;97.00;;;;;;5066342;28;20017;-65
2021/09/21 03:22:24;;;;;;;9.15;6.18;;;11.80;97.00;;;;;;5066125;28;20031;-67
2021/09/21 03:24:51;;;;;;;10.07;6.57;;;11.80;96.90;;;;;;5066195;28;20020;-66
2021/09/21 03:27:17;;;;;;;9.90;6.80;;;11.70;97.00;;;;;;5064912;28;20059;-66
2021/09/21 03:29:43;;;;;;;11.38;6.45;;;11.80;97.10;;;;;;5065663;28;20146;-66
2021/09/21 03:32:09;;;;;;;9.90;6.00;;;11.70;97.00;;;;;;5066282;28;20478;-66
2021/09/21 03:34:37;;;;;;;8.85;5.70;;;11.60;97.10;;;;;;5067357;28;20480;-66
2021/09/21 03:37:11;;;;;;;8.07;6.10;;;11.60;97.20;;;;;;5066707;28;20051;-66
2021/09/21 03:39:38;;;;;;;8.55;6.20;;;11.60;97.30;;;;;;5067248;28;20387;-65
2021/09/21 03:42:05;;;;;;;10.82;6.70;;;11.60;97.30;;;;;;5064420;28;20040;-65
2021/09/21 03:44:30;;;;;;;9.82;6.68;;;11.60;97.30;;;;;;5070524;28;20513;-65
2021/09/21 03:46:56;;;;;;;9.27;6.22;;;11.60;97.30;;;;;;5069251;28;20037;-65
2021/09/21 03:49:23;;;;;;;9.38;6.88;;;11.60;97.30;;;;;;5071978;28;20025;-66
2021/09/21 03:51:50;;;;;;;10.10;6.55;;;11.70;97.30;;;;;;5068680;28;20231;-66
2021/09/21 03:54:16;;;;;;;10.18;6.25;;;11.70;97.30;;;;;;5070706;28;20033;-66
2021/09/21 03:56:42;;;;;;;9.15;6.00;;;11.60;97.20;;;;;;5070472;28;20036;-67
2021/09/21 03:59:08;;;;;;;9.13;6.55;;;11.70;97.20;;;;;;5070131;28;20036;-66
2021/09/21 04:01:34;;;;;;;12.07;7.03;;;11.70;97.30;;;;;;5065930;28;20226;-66
2021/09/21 04:04:01;;;;;;;9.75;6.82;;;11.70;97.10;;;;;;5071268;28;20063;-66
2021/09/21 04:06:27;;;;;;;10.57;6.63;;;11.70;97.10;;;;;;5070390;28;20028;-65
2021/09/21 04:08:54;;;;;;;10.27;6.40;;;11.70;97.20;;;;;;5068872;28;20024;-65
2021/09/21 04:11:21;;;;;;;10.32;6.72;;;11.70;97.20;;;;;;5070928;28;20025;-65
2021/09/21 04:13:48;;;;;;;10.05;6.63;;;11.70;97.20;;;;;;5066598;28;20035;-65
2021/09/21 04:16:14;;;;;;;9.18;6.47;;;11.70;97.20;;;;;;5069611;28;20051;-65
2021/09/21 04:18:40;;;;;;;8.65;5.68;;;11.70;97.10;;;;;;5068637;28;20028;-65
2021/09/21 04:21:06;;;;;;;9.10;6.10;;;11.70;97.00;;;;;;5069841;28;20478;-66
2021/09/21 04:23:32;;;;;;;10.25;6.15;;;11.70;97.00;;;;;;5068424;28;20148;-65
2021/09/21 04:25:57;;;;;;;10.75;6.25;;;11.70;97.10;;;;;;5069642;28;20020;-66
2021/09/21 04:28:23;;;;;;;10.60;6.30;;;11.70;97.00;;;;;;5066433;28;20027;-65
2021/09/21 04:30:51;;;;;;;8.00;6.25;;;11.70;97.00;;;;;;5077527;28;20781;-65
2021/09/21 04:33:17;;;;;;;9.18;5.85;;;11.70;97.10;;;;;;5068412;28;20113;-65
2021/09/21 04:35:42;;;;;;;9.50;6.18;;;11.70;97.10;;;;;;5069683;28;20500;-65
2021/09/21 04:38:10;;;;;;;9.32;6.43;;;11.80;97.10;;;;;;5069052;28;20024;-65
2021/09/21 04:40:36;;;;;;;10.55;5.85;;;11.80;97.10;;;;;;5068460;28;20032;-66
2021/09/21 04:43:03;;;;;;;8.10;5.90;;;11.80;97.10;;;;;;5067767;28;20683;-65
2021/09/21 04:45:30;;;;;;;13.70;6.30;;;11.80;97.10;;;;;;5068742;28;20028;-66
2021/09/21 04:47:55;;;;;;;9.57;5.90;;;11.80;97.10;;;;;;5069535;28;20024;-65
2021/09/21 04:50:21;;;;;;;7.95;5.72;;;11.80;97.10;;;;;;5068018;28;20409;-67
2021/09/21 04:52:46;;;;;;;10.27;6.35;;;11.90;97.00;;;;;;5065888;28;20474;-66
2021/09/21 04:55:12;;;;;;;9.32;6.10;;;11.90;97.10;;;;;;5070088;28;20047;-66
2021/09/21 04:57:38;;;;;;;10.80;6.15;;;11.90;97.10;;;;;;5066396;28;20093;-66
2021/09/21 05:00:06;;;;;;;11.82;6.57;;;11.90;97.20;;;;;;5068091;28;20028;-65
2021/09/21 05:02:32;;;;;;;8.25;5.95;;;11.90;97.30;;;;;;5067658;28;20051;-66
2021/09/21 05:04:58;;;;;;;10.73;5.75;;;11.90;97.30;;;;;;5068715;28;20078;-67
2021/09/21 05:07:23;;;;;;;10.77;6.57;;;11.90;97.30;;;;;;5070161;28;20068;-66
2021/09/21 05:09:49;;;;;;;8.90;6.18;;;12.00;97.40;;;;;;5070922;28;20035;-66
2021/09/21 05:12:15;;;;;;;10.57;6.78;;;12.00;97.50;;;;;;5069068;28;20067;-66
2021/09/21 05:14:40;;;;;;;10.60;6.38;;;12.00;97.60;;;;;;5067430;28;20048;-66
2021/09/21 05:17:06;;;;;;;9.93;6.60;;;12.00;97.60;;;;;;5071116;28;20161;-66
2021/09/21 05:19:32;;;;;;;14.48;7.63;;;12.00;97.70;;;;;;5068309;28;20151;-66
2021/09/21 05:21:58;;;;;;;11.13;7.13;;;12.00;97.70;;;;;;5071509;28;20143;-66
2021/09/21 05:24:24;;;;;;;11.68;7.60;;;12.10;97.80;;;;;;5069165;28;20474;-66
2021/09/21 05:26:50;;;;;;;10.10;7.22;;;12.10;97.80;;;;;;5069382;28;20029;-67
2021/09/21 05:29:15;;;;;;;10.00;7.18;;;12.10;97.80;;;;;;5069573;28;20021;-66
2021/09/21 05:31:41;;;;;;;11.00;7.60;;;12.10;97.80;;;;;;5068247;28;20471;-65
2021/09/21 05:34:07;;;;;;;12.02;7.80;;;12.10;97.90;;;;;;5068697;28;20425;-66
2021/09/21 05:36:33;;;;;;;11.00;7.63;;;12.10;97.80;;;;;;5069051;28;20071;-66
2021/09/21 05:38:58;;;;;;;12.30;8.32;;;12.10;97.90;;;;;;5066690;28;20043;-66
2021/09/21 05:41:24;;;;;;;11.60;8.20;;;12.10;97.80;;;;;;5067873;28;20370;-67
2021/09/21 05:43:50;;;;;;;11.80;7.65;;;12.10;97.80;;;;;;5069449;28;20477;-65
2021/09/21 05:46:16;;;;;;;11.07;8.00;;;12.20;97.80;;;;;;5070826;28;20028;-65
2021/09/21 05:48:42;;;;;;;11.50;8.07;;;12.20;97.70;;;;;;5070117;28;20030;-65
2021/09/21 05:51:07;;;;;;;11.35;7.95;;;12.20;97.60;;;;;;5070514;28;20487;-66
2021/09/21 05:53:33;;;;;;;13.93;8.30;;;12.20;97.40;;;;;;5069832;28;20032;-65
2021/09/21 05:55:59;;;;;;;13.77;7.72;;;12.20;97.40;;;;;;5070200;28;20052;-66
2021/09/21 05:58:24;;;;;;;12.07;7.45;;;12.20;97.30;;;;;;5068949;28;20036;-65
2021/09/21 06:00:50;;;;;;;12.07;7.90;;;12.30;97.20;;;;;;5069791;28;20094;-65
2021/09/21 06:03:16;;;;;;;11.85;8.02;;;12.30;97.10;;;;;;5071945;28;20040;-65
2021/09/21 06:05:42;;;;;;;10.73;7.30;;;12.30;97.10;;;;;;5073432;28;20029;-65
2021/09/21 06:08:08;;;;;;;12.07;7.32;;;12.30;97.10;;;;;;5069913;28;20082;-65
2021/09/21 06:10:35;;;;;;;13.25;7.32;;;12.30;97.00;;;;;;5071174;28;20028;-66
2021/09/21 06:13:01;;;;;;;12.48;7.47;;;12.30;96.80;;;;;;5070571;28;20044;-66
2021/09/21 06:15:27;;;;;;;9.73;6.55;;;12.30;96.70;;;;;;5069092;28;20043;-65
2021/09/21 06:17:53;;;;;;;10.35;6.82;;;12.30;96.70;;;;;;5068787;28;20032;-65
2021/09/21 06:20:19;;;;;;;11.35;6.65;;;12.30;96.60;;;;;;5070346;28;20454;-65
2021/09/21 06:22:46;;;;;;;11.43;8.20;;;12.30;96.50;;;;;;5069352;28;20024;-65
2021/09/21 06:25:14;;;;;;;13.85;8.02;;;12.30;96.20;;;;;;5071195;28;20024;-65
2021/09/21 06:27:40;;;;;;;10.48;7.25;;;12.30;96.40;;;;;;5069640;28;20114;-66
2021/09/21 06:30:09;;;;;;;12.10;6.80;;;12.30;96.40;;;;;;5070793;28;20070;-65
2021/09/21 06:32:35;;;;;;;10.00;7.07;;;12.30;96.40;;;;;;5069007;28;20093;-65
2021/09/21 06:35:02;;;;;;;10.25;7.03;;;12.40;96.10;;;;;;5069493;28;20031;-66
2021/09/21 06:37:28;;;;;;;10.55;6.63;;;12.40;96.10;;;;;;5068949;28;20066;-67
2021/09/21 06:39:53;;;;;;;9.10;6.05;;;12.50;96.10;;;;;;5070554;28;20035;-65
2021/09/21 06:42:19;;;;;;;14.13;6.67;;;12.50;96.00;;;;;;5069876;28;20044;-65
2021/09/21 06:44:45;;;;;;;10.05;6.97;;;12.60;96.00;;;;;;5069469;28;20130;-65
2021/09/21 06:47:10;;;;;;;10.45;7.03;;;12.60;95.30;;;;;;5068419;28;20029;-68
2021/09/21 06:49:36;;;;;;;9.00;6.53;;;12.60;95.30;;;;;;5067399;28;20036;-65
2021/09/21 06:52:02;;;;;;;9.43;6.40;;;12.60;95.40;;;;;;5068406;28;20063;-65
2021/09/21 06:54:28;;;;;;;10.60;6.82;;;12.60;95.40;;;;;;5069157;28;20029;-65
2021/09/21 06:56:53;;;;;;;11.15;6.65;;;12.60;95.20;;;;;;5067783;28;20382;-65
2021/09/21 06:59:19;;;;;;;11.57;6.40;;;12.60;94.60;;;;;;5066431;28;20044;-65
2021/09/21 07:01:45;;;;;;;9.55;6.10;;;12.60;94.80;;;;;;5068000;28;20032;-65
2021/09/21 07:04:11;;;;;;;9.38;6.15;;;12.60;95.00;;;;;;5069204;28;20394;-65
2021/09/21 07:06:36;;;;;;;7.70;5.53;;;12.60;95.30;;;;;;5067705;28;20502;-65
2021/09/21 07:09:02;;;;;;;10.18;5.82;;;12.60;95.40;;;;;;5069942;28;20035;-65
2021/09/21 07:11:28;;;;;;;10.77;6.03;;;12.60;95.60;;;;;;5068606;28;20111;-66
2021/09/21 07:13:54;;;;;;;10.40;6.05;;;12.60;95.30;;;;;;5068550;28;20609;-65
2021/09/21 07:16:20;;;;;;;10.38;6.43;;;12.60;95.40;;;;;;5067940;28;20771;-65
2021/09/21 07:18:46;;;;;;;10.73;6.85;;;12.70;94.80;;;;;;5064843;28;20032;-66
2021/09/21 07:21:12;;;;;;;9.05;5.90;;;12.70;95.10;;;;;;5068069;28;20024;-66
2021/09/21 07:23:38;;;;;;;9.18;6.28;;;12.70;95.30;;;;;;5062419;28;20032;-66
2021/09/21 07:26:08;;;;;;;9.57;5.30;;;12.60;95.60;;;;;;5061273;28;20532;-67
2021/09/21 07:28:34;;;;;;;9.32;5.43;;;12.60;95.80;;;;;;5068056;28;20020;-66
2021/09/21 07:30:59;;;;;;;12.63;7.35;;;12.60;95.90;;;;;;5068221;28;20082;-66
2021/09/21 07:33:25;;;;;;;10.45;6.32;;;12.70;95.80;;;;;;5066518;28;20033;-66
2021/09/21 07:35:51;;;;;;;8.13;6.22;;;12.70;95.80;;;;;;5066194;28;20024;-66
2021/09/21 07:38:19;;;;;;;10.27;6.28;;;12.70;95.90;;;;;;5065657;28;20031;-66
2021/09/21 07:40:45;;;;;;;8.73;6.30;;;12.70;96.00;;;;;;5067544;28;20075;-66
2021/09/21 07:43:11;;;;;;;13.70;7.55;;;12.70;96.10;;;;;;5067713;28;20031;-66
2021/09/21 07:45:37;;;;;;;9.35;6.55;;;12.60;95.90;;;;;;5067846;28;20025;-66
2021/09/21 07:48:03;;;;;;;10.70;6.28;;;12.60;96.10;;;;;;5067370;28;20037;-66
2021/09/21 07:50:29;;;;;;;12.07;7.03;;;12.60;96.20;;;;;;5071560;28;20455;-66
2021/09/21 07:52:56;;;;;;;9.32;6.10;;;12.70;96.20;;;;;;5065997;28;20085;-66
2021/09/21 07:55:22;;;;;;;10.60;6.78;;;12.70;96.30;;;;;;5065586;28;20073;-66
2021/09/21 07:57:48;;;;;;;10.25;6.40;;;12.80;96.20;;;;;;5067132;28;20075;-66
2021/09/21 08:00:15;;;;;;;8.95;6.35;;;12.90;96.30;;;;;;5066230;28;20059;-66
2021/09/21 08:02:42;;;;;;;10.40;6.78;;;12.90;96.30;;;;;;5066963;28;20036;-66
2021/09/21 08:05:08;;;;;;;12.55;7.38;;;13.00;96.20;;;;;;5064004;28;20032;-66
2021/09/21 08:07:34;;;;;;;10.45;6.55;;;13.00;96.10;;;;;;5065723;28;20036;-66
2021/09/21 08:10:01;;;;;;;8.98;6.43;;;13.10;96.10;;;;;;5068153;28;20024;-66
2021/09/21 08:12:28;;;;;;;9.55;6.53;;;13.00;96.00;;;;;;5066064;28;20097;-66
2021/09/21 08:14:55;;;;;;;12.07;6.90;;;13.00;96.00;;;;;;5069386;28;20035;-66
2021/09/21 08:17:24;;;;;;;9.15;6.40;;;13.10;96.00;;;;;;5064676;28;20463;-66
2021/09/21 08:19:51;;;;;;;10.13;7.25;;;13.10;95.80;;;;;;5067867;28;20028;-66
2021/09/21 08:22:18;;;;;;;8.50;6.15;;;13.10;95.60;;;;;;5067596;28;20036;-66
2021/09/21 08:24:45;;;;;;;10.60;6.90;;;13.10;95.60;;;;;;5066839;28;20036;-68
2021/09/21 08:27:11;;;;;;;9.35;6.72;;;13.10;95.60;;;;;;5067925;28;20024;-66
2021/09/21 08:29:37;;;;;;;12.23;7.90;;;13.20;95.60;;;;;;5070094;28;20389;-66
2021/09/21 08:32:03;;;;;;;10.30;7.07;;;13.20;95.50;;;;;;5072969;28;20865;-66
2021/09/21 08:34:29;;;;;;;11.25;8.00;;;13.20;95.40;;;;;;5070685;28;20029;-66
2021/09/21 08:36:55;;;;;;;13.77;8.07;;;13.20;95.20;;;;;;5069496;28;20029;-66
2021/09/21 08:39:22;;;;;;;14.02;9.45;;;13.30;95.10;;;;;;5069184;28;20048;-67
2021/09/21 08:41:49;;;;;;;10.60;6.72;;;13.30;94.90;;;;;;5069181;28;20056;-66
2021/09/21 08:44:15;;;;;;;14.25;8.18;;;13.30;95.00;;;;;;5071443;28;20039;-66
2021/09/21 08:46:40;;;;;;;12.10;7.93;;;13.30;94.90;;;;;;5068526;28;20060;-66
2021/09/21 08:49:06;;;;;;;11.80;7.53;;;13.30;94.90;;;;;;5071350;28;20024;-66
2021/09/21 08:51:32;;;;;;;10.35;7.55;;;13.30;95.20;;;;;;5070179;28;20029;-66
2021/09/21 08:53:58;;;;;;;12.55;7.80;;;13.30;95.00;;;;;;5070095;28;20035;-66
2021/09/21 08:56:24;;;;;;;11.45;7.00;;;13.30;95.10;;;;;;5070679;28;20055;-66
2021/09/21 08:59:09;;;;;;;11.13;6.53;;;13.30;95.10;;;;;;5066706;28;20027;-66
2021/09/21 09:01:41;;;;;;;9.45;6.45;;;13.30;94.80;;;;;;5067970;28;20028;-66
2021/09/21 09:04:07;;;;;;;10.40;6.72;;;13.20;95.00;;;;;;5070582;28;20111;-66
2021/09/21 09:06:43;;;;;;;10.07;7.13;;;13.30;95.10;;;;;;5068089;28;20513;-66
2021/09/21 09:09:17;;;;;;;9.98;7.00;;;13.30;94.70;;;;;;5069637;28;20028;-66
2021/09/21 09:11:46;;;;;;;10.30;6.60;;;13.30;94.70;;;;;;5066894;28;20028;-66
2021/09/21 09:14:20;;;;;;;10.73;6.13;;;13.30;94.30;;;;;;5065546;28;20036;-66
2021/09/21 09:16:51;;;;;;;10.15;6.05;;;13.30;94.60;;;;;;5068064;28;20033;-66
2021/09/21 09:19:17;;;;;;;9.63;6.20;;;13.20;94.50;;;;;;5071111;28;20028;-66
2021/09/21 09:21:46;;;;;;;9.82;6.18;;;13.20;94.50;;;;;;5068713;28;20289;-66
2021/09/21 09:24:14;;;;;;;8.77;5.38;;;13.20;94.70;;;;;;5070579;28;20051;-66
2021/09/21 09:26:43;;;;;;;7.18;6.00;;;13.20;94.80;;;;;;5068755;28;20058;-66
2021/09/21 09:29:11;;;;;;;8.43;5.47;;;13.20;95.30;;;;;;5071752;28;20086;-66
2021/09/21 09:31:40;;;;;;;8.23;5.20;;;13.20;95.10;;;;;;5069743;28;20094;-66
2021/09/21 09:34:07;;;;;;;9.48;6.28;;;13.30;95.10;;;;;;5073144;28;20452;-66
2021/09/21 09:36:52;;;;;;;8.82;6.28;;;13.40;95.00;;;;;;5067512;28;20060;-66
2021/09/21 09:39:21;;;;;;;8.15;5.63;;;13.40;94.80;;;;;;5068962;28;20032;-66
2021/09/21 09:41:49;;;;;;;7.32;5.22;;;13.50;94.90;;;;;;5069332;28;20469;-66
2021/09/21 09:44:18;;;;;;;8.75;5.72;;;13.60;94.90;;;;;;5070637;28;20039;-66
2021/09/21 09:46:47;;;;;;;8.40;5.22;;;13.70;94.60;;;;;;5069457;28;20079;-66
2021/09/21 09:49:13;;;;;;;8.13;5.32;;;13.80;94.50;;;;;;5069480;28;20154;-66
2021/09/21 09:51:48;;;;;;;8.50;5.35;;;13.90;93.90;;;;;;5069716;28;20071;-66
2021/09/21 09:54:14;;;;;;;11.02;5.22;;;14.00;94.10;;;;;;5070057;28;20039;-66
2021/09/21 09:56:42;;;;;;;6.75;4.55;;;14.10;93.80;;;;;;5070049;28;20024;-66
2021/09/21 09:59:09;;;;;;;8.70;5.03;;;14.10;93.90;;;;;;5070448;28;20041;-66
2021/09/21 10:01:35;;;;;;;6.22;4.75;;;14.20;93.70;;;;;;5068054;28;20037;-66
2021/09/21 10:04:01;;;;;;;6.28;4.53;;;14.30;93.60;;;;;;5068705;28;20043;-66
2021/09/21 10:06:30;;;;;;;7.93;5.20;;;14.40;93.50;;;;;;5067682;28;20060;-66
2021/09/21 10:08:57;;;;;;;6.10;4.35;;;14.50;93.60;;;;;;5068525;28;20089;-66
2021/09/21 10:11:27;;;;;;;5.68;3.90;;;14.60;93.30;;;;;;5067722;28;20020;-66
2021/09/21 10:13:54;;;;;;;9.45;5.70;;;14.70;93.20;;;;;;5067331;28;20032;-66
2021/09/21 10:16:20;;;;;;;7.00;5.10;;;14.80;92.70;;;;;;5067736;28;20033;-66
2021/09/21 10:18:57;;;;;;;8.98;4.97;;;14.80;92.60;;;;;;5063996;28;20037;-67
2021/09/21 10:21:53;;;;;;;5.80;4.00;;;14.90;92.30;;;;;;5065802;28;20033;-66
2021/09/21 10:24:42;;;;;;;7.18;4.38;;;15.00;92.50;;;;;;5068836;28;20379;-65
2021/09/21 10:27:10;;;;;;;7.95;4.72;;;15.10;92.40;;;;;;5068452;28;20370;-66
2021/09/21 10:29:37;;;;;;;8.82;5.05;;;15.20;92.30;;;;;;5061767;28;20074;-68
2021/09/21 10:32:10;;;;;;;10.70;5.28;;;15.20;91.60;;;;;;5069231;28;20024;-68
2021/09/21 10:34:42;;;;;;;6.28;3.95;;;15.30;91.60;;;;;;5066831;28;20028;-69
2021/09/21 10:37:08;;;;;;;9.98;4.40;;;15.30;91.80;;;;;;5067235;28;20032;-70
2021/09/21 10:39:34;;;;;;;6.85;4.25;;;15.40;91.60;;;;;;5069832;28;20070;-68
2021/09/21 10:42:09;;;;;;;10.65;4.78;;;15.40;91.10;;;;;;5067866;28;20036;-69
2021/09/21 10:44:36;;;;;;;7.22;4.45;;;15.30;91.10;;;;;;5067805;28;20036;-69
2021/09/21 10:47:06;;;;;;;5.03;3.58;;;15.30;91.20;;;;;;5069187;28;20025;-72
2021/09/21 10:49:36;;;;;;;6.90;4.05;;;15.40;91.40;;;;;;5071255;28;20044;-70
2021/09/21 10:52:08;;;;;;;6.85;4.68;;;15.40;91.40;;;;;;5071564;28;20020;-68
2021/09/21 10:54:51;;;;;;;8.80;4.65;;;15.40;91.20;;;;;;5067002;28;20402;-69
2021/09/21 10:57:49;;;;;;;7.47;4.30;;;15.50;91.20;;;;;;5067353;28;20028;-69
2021/09/21 11:00:19;;;;;;;8.45;4.88;;;15.50;91.30;;;;;;5066709;28;20456;-71
2021/09/21 11:02:51;;;;;;;7.22;4.20;;;15.50;91.10;;;;;;5067439;28;20032;-70
2021/09/21 11:05:20;;;;;;;7.10;4.15;;;15.60;91.10;;;;;;5069961;28;20020;-71
2021/09/21 11:08:03;;;;;;;6.50;4.22;;;15.50;91.30;;;;;;5070943;28;20025;-70
2021/09/21 11:10:31;;;;;;;7.50;4.68;;;15.50;91.40;;;;;;5069401;28;20099;-70
2021/09/21 11:12:58;;;;;;;7.50;3.95;;;15.50;91.80;;;;;;5069420;28;20048;-70
2021/09/21 11:15:28;;;;;;;6.47;4.00;;;15.50;91.80;;;;;;5068118;28;20029;-71
2021/09/21 11:18:08;;;;;;;6.25;4.25;;;15.40;91.90;;;;;;5068423;28;20026;-69
2021/09/21 11:21:09;;;;;;;6.07;3.87;;;15.50;92.00;;;;;;5066667;28;20102;-69
2021/09/21 11:23:38;;;;;;;8.23;4.68;;;15.40;92.10;;;;;;5067738;28;20478;-70
2021/09/21 11:26:11;;;;;;;6.20;4.05;;;15.50;91.90;;;;;;5068631;28;20462;-70
2021/09/21 11:28:42;;;;;;;5.05;3.70;;;15.50;92.10;;;;;;5068393;28;20552;-70
2021/09/21 11:31:08;;;;;;;6.03;4.10;;;15.50;92.20;;;;;;5066877;28;20039;-69
2021/09/21 11:33:39;;;;;;;7.63;4.60;;;15.50;92.20;;;;;;5068248;28;20028;-71
2021/09/21 11:36:10;;;;;;;7.07;4.43;;;15.60;92.00;;;;;;5070854;28;20050;-70
2021/09/21 11:38:39;;;;;;;;;;;15.70;91.90;;;;;;5065958;28;20025;-71
2021/09/21 11:41:06;;;;;;;11.90;4.50;;;15.70;92.00;;;;;;5070536;28;19908;-72
2021/09/21 11:43:32;;;;;;;6.78;4.05;;;15.70;92.20;;;;;;5060551;28;20056;-68
2021/09/21 11:45:58;;;;;;;9.50;5.15;;;15.70;92.10;;;;;;5065806;28;20107;-69
2021/09/21 11:48:25;;;;;;;10.05;4.72;;;15.60;91.80;;;;;;5067094;28;20037;-69
2021/09/21 11:50:52;;;;;;;8.70;4.07;;;15.70;92.00;;;;;;5066402;28;20548;-69
2021/09/21 11:53:20;;;;;;;6.70;3.67;;;15.80;92.20;;;;;;5066887;28;20116;-69
2021/09/21 11:55:50;;;;;;;5.78;4.03;;;15.70;91.90;;;;;;5065837;28;20119;-69
2021/09/21 11:58:16;;;;;;;7.30;3.63;;;15.70;91.90;;;;;;5070971;28;20050;-69
2021/09/21 12:00:46;;;;;;;5.10;3.97;;;15.70;92.00;;;;;;5066628;28;20143;-69
2021/09/21 12:03:20;;;;;;;7.85;3.92;;;15.70;92.20;;;;;;5066894;28;20051;-69
2021/09/21 12:05:50;;;;;;;6.10;3.75;;;15.70;92.30;;;;;;5072030;28;20016;-69
2021/09/21 12:08:19;;;;;;;7.57;4.60;;;15.60;92.50;;;;;;5071547;28;20024;-69
2021/09/21 12:10:54;;;;;;;6.10;3.40;;;15.50;92.50;;;;;;5070810;28;20357;-69
2021/09/21 12:13:23;;;;;;;5.72;3.70;;;15.60;92.70;;;;;;5069134;28;20056;-69
2021/09/21 12:16:10;;;;;;;7.93;4.22;;;15.60;92.80;;;;;;5071541;28;20056;-69
2021/09/21 12:18:37;;;;;;;7.72;3.58;;;15.50;92.80;;;;;;5071483;28;20551;-69
2021/09/21 12:21:15;;;;;;;7.03;3.83;;;15.60;92.80;;;;;;5068888;28;20070;-69
2021/09/21 12:23:43;;;;;;;7.25;4.25;;;15.60;92.90;;;;;;5068532;28;20108;-69
2021/09/21 12:26:13;;;;;;;6.13;3.67;;;15.70;92.80;;;;;;5068132;28;20035;-69
2021/09/21 12:28:44;;;;;;;4.70;3.17;;;15.90;92.70;;;;;;5068530;28;20108;-69
2021/09/21 12:31:16;;;;;;;4.75;3.22;;;16.00;92.60;;;;;;5067417;28;20033;-69
2021/09/21 12:33:42;;;;;;;7.97;4.18;;;16.10;92.50;;;;;;5069523;28;20111;-69
2021/09/21 12:36:26;;;;;;;6.32;3.95;;;16.20;92.40;;;;;;5066488;28;20039;-68
2021/09/21 12:39:06;;;;;;;6.35;3.90;;;16.20;92.30;;;;;;5072023;28;20040;-69
2021/09/21 12:41:41;;;;;;;6.03;4.03;;;16.10;92.40;;;;;;5070320;28;20115;-69
2021/09/21 12:44:09;;;;;;;7.53;4.45;;;16.10;92.60;;;;;;5068930;28;20043;-69
2021/09/21 12:46:36;;;;;;;5.82;4.05;;;16.00;92.70;;;;;;5069840;28;20027;-69
2021/09/21 12:49:03;;;;;;;7.18;4.57;;;16.00;92.80;;;;;;5069756;28;20024;-68
2021/09/21 12:51:34;;;;;;;7.25;4.20;;;16.10;93.00;;;;;;5070509;28;20016;-69
2021/09/21 12:54:01;;;;;;;14.23;4.40;;;16.20;93.00;;;;;;5071445;28;20032;-69
2021/09/21 12:56:30;;;;;;;5.88;3.80;;;16.40;92.90;;;;;;5070017;28;20029;-69
2021/09/21 12:59:06;;;;;;;6.38;4.50;;;16.50;92.70;;;;;;5071059;28;20082;-69